Historyczne dane pomiarowe

Dodano dane terminowe – wersja testowa.

Dane z okresu 1951-2019

Wersja bazy: 1.34 [2019-03-16, lista zmian], aktualizacja planowana na 2019-04-15

Dane meteo z obszaru Polski uzyskane na podstawie danych udostępnionych przez Instytut Meteorologii i Gospodarki Wodnej – Państwowy Instytut Badawczy.

 

Wybierz Datę:    

       

TemperaturaWilgotnośćWiatrCiśnienieOpadyŚniegCzas trwania zjawisk
 Stacja t tx tn tng RH VA  wxwx mslp ppp RRR   cm mm wxwxwxwxwxwxwx
1952-03-18 -6.9 -2.4 -9.5- 56.8- 0.3 2.3---- 0.0-- 6---------
1952-03-19 -7.2 -1.5-14.1- 66.5- 1.3 1.7---- 0.0-- 6---------
1952-03-20 -5.8 -2.0-13.3- 65.8- 2.0 3.0---- 0.0-- 5---------
1952-03-21 -6.4 -2.8 -8.5- 66.3- 4.3 2.3---- 0.0-- 5---------
1952-03-22-10.2 -5.4-17.3- 53.8- 0.0 1.3---- 0.0-- 4---------
1952-03-23 -7.6 -3.6-11.6- 67.5- 1.3 2.0---- 0.0-- 4---------
1952-03-24 -1.2 0.7-11.1- 89.3- 6.3 3.7---- 0.8-- 4---------
1952-03-25 -6.0 0.8 -9.6- 75.5- 4.0 2.3---- 0.5-- 5---------
1952-03-26 -8.6 -4.3-11.6- 73.5- 0.3 2.3---- 0.0-- 5---------
1952-03-27 -8.8 -3.4-16.1- 59.3- 0.0 2.7---- 0.0-- 4---------
1952-03-28 -7.2 -1.6-12.1- 89.5- 0.3 1.3---- 0.0-- 3---------
1952-03-29 -4.5 0.5-14.1- 82.0- 2.3 0.3---- 0.0-- 2---------
1952-03-30 -4.3 -1.4 -7.7- 58.3- 6.7 5.0---- 0.0-- 2---------
1952-03-31 -2.7 -1.4 -5.6- 85.8- 7.3 3.0---- 1.0-- 2---------
1952-04-01 1.3 6.0 -2.6- 75.0- 7.3 3.7---- 0.1-- 2---------
1952-04-02 -1.0 2.9 -4.0- 75.5- 1.0 5.3---- 0.2------------
1952-04-03 -0.2 4.9 -5.5- 78.3- 0.0 3.0---- 0.0-- 2---------
1952-04-04 3.3 6.0 -1.5- 82.3- 5.7 4.3---- 0.0------------
1952-04-05 2.8 7.8 -0.5- 82.3- 2.3 1.0---- 0.0------------
1952-04-06 4.3 6.0 -1.4- 76.0- 5.3 1.7---- 0.0------------
1952-04-07 5.2 10.2 0.1- 82.5- 3.3 4.0---- 0.0------------
1952-04-08 6.3 9.6 0.1- 87.0- 5.3 3.7---- 4.5------------
1952-04-09 6.8 8.0 5.5- 95.0- 8.0 4.7---- 6.0------------
1952-04-10 4.2 6.7 0.1- 94.8- 7.3 1.7---- 0.0------------
1952-04-11 8.6 15.1 4.2- 69.3- 1.7 2.0---- 0.0------------
1952-04-12 10.8 18.0 3.9- 80.0- 0.0 1.0---- 0.0------------
1952-04-13 13.0 25.1 3.4- 88.3- 3.3 1.7---- 0.0------------
1952-04-14 14.0 21.9 3.8- 67.3- 0.0 1.7---- 0.0------------
1952-04-15 14.8 26.2 4.0- 64.5- 0.0 0.0---- 0.0------------
1952-04-16 12.7 27.3 7.8- 73.5- 1.7 2.0---- 0.6------------
232.5 ms

 

Źródłem pochodzenia danych jest Instytut Meteorologii i Gospodarki Wodnej – Państwowy Instytut Badawczy. Dane Instytutu Meteorologii i Gospodarki Wodnej – Państwowego Instytutu Badawczego zostały przetworzone.

Dane źródłowe można odnaleźć na stronie https://dane.imgw.pl